Virtual Norwegian is not affiliated with Norwegian Air Shuttle in any way.
If you are looking for the real "Norwegian", or you wish to book Norwegian flights, please visit Norwegian.com


We use cookies to ensure you get the best experience on our website.   ACCEPT

LEMD - MAD - Madrid (Adolfo Suarez Madrid-Barajas)

General Info Alternate Airport
ICAO: LEMD Elevation: 2000 ft ICAO: LEAL
IATA: MAD Country: Spain IATA: ALC
City: Madrid Charts: Log in to view charts City: Alicante
Name: Adolfo Suarez Madrid-Barajas Hub: Yes Name Elche
General Info
ICAO: LEMD
IATA: MAD
City: Madrid
Name: Adolfo Suarez Madrid-Barajas
Elevation: 2000 ft
Country: Spain
Charts: Log in to view charts
Hub: Yes
 
Alternate Airport
ICAO: LEAL
IATA: ALC
City: Alicante
Name: Elche

Weather
110830Z 36003KT CAVOK 01/M00 Q1024 NOSIG
Weather
110830Z 36003KT CAVOK 01/M00 Q1024 NOSIG

Runway Info
14L
Length ILS/LOC Heading
3500 m N/A 142
14R
Length ILS/LOC Heading
3988 m N/A 142
18L
Length ILS/LOC Course
3500 m 111.50 181
18R
Length ILS/LOC Course
4179 m 110.70 181
32L
Length ILS/LOC Course
3988 m 109.90 324
32R
Length ILS/LOC Course
3500 m 109.10 324
36L
Length ILS/LOC Heading
4179 m N/A 359
36R
Length ILS/LOC Heading
3500 m N/A 359

NOTAMs
NOTAMs currently unavailable.
NOTAMs
NOTAMs currently unavailable

Route map
Airport
Airport (hub)